createdAt,value
2018-01-29T06:22:26.080Z,0.1
2018-01-29T06:24:25.894Z,0.2
2018-01-29T06:26:25.942Z,0.3
2018-01-29T06:28:26.037Z,0.4
2018-01-29T06:29:25.834Z,0.5
2018-01-29T06:30:26.861Z,0.6
2018-01-29T06:31:25.864Z,0.7
2018-01-29T06:32:25.836Z,0.9
2018-01-29T06:33:26.038Z,1.1
2018-01-29T06:34:26.240Z,1.3
2018-01-29T06:35:25.834Z,1.5
2018-01-29T06:36:25.865Z,1.8
2018-01-29T06:37:25.834Z,2.1
2018-01-29T06:38:26.040Z,2.3
2018-01-29T06:39:25.834Z,2.7
2018-01-29T06:40:25.837Z,3.1
2018-01-29T06:41:25.877Z,3.5
2018-01-29T06:42:25.833Z,4.1
2018-01-29T06:43:26.043Z,4.7
2018-01-29T06:44:25.831Z,5.3
2018-01-29T06:45:25.833Z,6.2
2018-01-29T06:46:25.863Z,7.3
2018-01-29T06:47:25.834Z,8.5
2018-01-29T06:48:26.034Z,9.9
2018-01-29T06:49:25.832Z,11.5
2018-01-29T06:50:25.810Z,13.4
2018-01-29T06:51:25.857Z,15.7
2018-01-29T06:52:25.835Z,18.6
2018-01-29T06:53:26.039Z,21.8
2018-01-29T06:54:25.927Z,25.8
2018-01-29T06:55:25.829Z,30.3
2018-01-29T06:56:25.863Z,35.9
2018-01-29T06:57:25.830Z,42.3
2018-01-29T06:58:26.034Z,49.4
2018-01-29T06:59:25.831Z,58.7
2018-01-29T07:00:25.829Z,69.5
2018-01-29T07:01:25.864Z,81.7
2018-01-29T07:02:30.830Z,94.3
2018-01-29T07:03:26.042Z,109.8
2018-01-29T07:04:25.829Z,126.3
2018-01-29T07:05:25.831Z,144.4
2018-01-29T07:06:25.868Z,165.9
2018-01-29T07:07:25.834Z,190.0
2018-01-29T07:08:26.090Z,214.5
2018-01-29T07:09:25.830Z,236.6
2018-01-29T07:10:28.954Z,257.1
2018-01-29T07:11:25.837Z,275.6
2018-01-29T07:12:25.909Z,293.5
2018-01-29T07:13:26.061Z,312.1
2018-01-29T07:14:25.834Z,327.4
2018-01-29T07:15:25.836Z,346.5
2018-01-29T07:16:26.108Z,366.3
2018-01-29T07:17:25.868Z,387.1
2018-01-29T07:19:26.024Z,404.5
2018-01-29T07:20:25.822Z,420.6
2018-01-29T07:21:25.824Z,433.9
2018-01-29T07:22:25.847Z,443.9
2018-01-29T07:23:25.821Z,452.5
2018-01-29T07:24:26.057Z,457.5
2018-01-29T07:25:25.823Z,466.5
2018-01-29T07:26:25.820Z,484.1
2018-01-29T07:27:25.824Z,502.7
2018-01-29T07:28:25.826Z,527.0
2018-01-29T07:29:27.086Z,553.6
2018-01-29T07:30:25.827Z,582.0
2018-01-29T07:31:25.829Z,614.2
2018-01-29T07:32:25.826Z,651.1
2018-01-29T07:33:25.843Z,688.3
2018-01-29T07:34:26.028Z,736.8
2018-01-29T07:35:25.858Z,803.3
2018-01-29T07:36:25.829Z,871.7
2018-01-29T07:37:25.824Z,949.1
2018-01-29T07:38:25.825Z,1017.5
2018-01-29T07:39:26.034Z,1088.0
2018-01-29T07:40:25.858Z,1154.4
2018-01-29T07:41:25.798Z,1211.5
2018-01-29T07:42:25.827Z,1276.3
2018-01-29T07:43:25.823Z,1356.0
2018-01-29T07:44:26.033Z,1444.1
2018-01-29T07:45:25.859Z,1528.1
2018-01-29T07:46:25.828Z,1642.9
2018-01-29T07:47:25.831Z,1752.3
2018-01-29T07:48:25.871Z,1844.1
2018-01-29T07:49:26.088Z,1939.5
2018-01-29T07:50:25.866Z,2045.8
2018-01-29T07:51:25.826Z,2144.7
2018-01-29T07:52:25.826Z,2270.1
2018-01-29T07:53:25.825Z,2415.6
2018-01-29T07:54:27.057Z,2590.9
2018-01-29T07:55:25.857Z,2773.1
2018-01-29T07:56:25.826Z,2942.3
2018-01-29T07:57:25.868Z,3149.9
2018-01-29T07:58:30.827Z,3410.3
2018-01-29T07:59:26.098Z,3628.3
2018-01-29T08:00:25.857Z,3788.5
2018-01-29T08:01:25.831Z,3898.6
2018-01-29T08:02:25.825Z,4025.6
2018-01-29T08:03:25.856Z,4195.6
2018-01-29T08:04:26.195Z,4474.6
2018-01-29T08:05:25.858Z,4727.9
2018-01-29T08:06:25.824Z,4932.1
2018-01-29T08:07:25.795Z,5020.6
2018-01-29T08:08:25.828Z,5123.9
2018-01-29T08:09:26.030Z,5278.4
2018-01-29T08:10:25.858Z,5449.8
2018-01-29T08:11:25.828Z,5689.5
2018-01-29T08:12:25.828Z,6030.8
2018-01-29T08:13:25.825Z,6230.5
2018-01-29T08:14:26.038Z,6417.7
2018-01-29T08:15:25.860Z,6604.1
2018-01-29T08:16:25.829Z,6726.3
2018-01-29T08:17:25.831Z,6833.6
2018-01-29T08:18:25.831Z,6944.5
2018-01-29T08:19:26.132Z,6901.5
2018-01-29T08:20:25.865Z,7043.1
2018-01-29T08:21:25.834Z,7377.2
2018-01-29T08:22:25.833Z,7670.1
2018-01-29T08:23:30.829Z,7858.5
2018-01-29T08:24:26.186Z,8039.9
2018-01-29T08:25:25.863Z,8447.1
2018-01-29T08:26:25.832Z,8935.5
2018-01-29T08:27:25.831Z,9025.2
2018-01-29T08:28:25.833Z,9082.5
2018-01-29T08:29:26.035Z,9113.2
2018-01-29T08:30:25.862Z,9260.3
2018-01-29T08:31:25.833Z,9440.9
2018-01-29T08:32:30.834Z,9703.2
2018-01-29T08:33:25.833Z,10527.7
2018-01-29T08:34:26.045Z,11237.0
2018-01-29T08:35:25.872Z,11498.0
2018-01-29T08:36:25.830Z,11896.0
2018-01-29T08:37:30.829Z,12345.1
2018-01-29T08:38:25.833Z,12888.9
2018-01-29T08:39:26.041Z,13221.2
2018-01-29T08:40:25.864Z,13213.3
2018-01-29T08:41:25.832Z,13413.7
2018-01-29T08:42:25.834Z,13880.1
2018-01-29T08:43:25.829Z,14108.9
2018-01-29T08:44:26.059Z,14522.4
2018-01-29T08:45:25.891Z,14919.9
2018-01-29T08:46:25.829Z,15185.9
2018-01-29T08:47:30.855Z,15309.1
2018-01-29T08:48:25.837Z,15242.2
2018-01-29T08:49:26.090Z,15322.9
2018-01-29T08:50:25.828Z,15547.3
2018-01-29T08:51:25.865Z,15303.2
2018-01-29T08:52:25.831Z,15151.3
2018-01-29T08:53:25.866Z,15200.7
2018-01-29T08:54:26.104Z,15602.1
2018-01-29T08:55:25.829Z,16234.3
2018-01-29T08:56:25.859Z,16461.4
2018-01-29T08:57:25.827Z,16554.9
2018-01-29T08:58:25.830Z,17280.2
2018-01-29T08:59:26.032Z,17500.9
2018-01-29T09:00:25.831Z,17610.5
2018-01-29T09:01:25.894Z,17878.7
2018-01-29T09:02:25.833Z,18208.5
2018-01-29T09:03:30.845Z,18300.3
2018-01-29T09:04:26.169Z,18496.9
2018-01-29T09:05:25.838Z,18931.9
2018-01-29T09:07:25.844Z,19640.1
2018-01-29T09:08:25.818Z,20322.1
2018-01-29T09:09:26.093Z,21000.8
2018-01-29T09:10:25.817Z,21421.9
2018-01-29T09:11:25.818Z,21341.7
2018-01-29T09:12:25.851Z,21170.9
2018-01-29T09:13:25.819Z,21446.7
2018-01-29T09:14:26.046Z,21382.7
2018-01-29T09:15:25.818Z,21816.2
2018-01-29T09:16:25.847Z,22066.2
2018-01-29T09:17:25.893Z,22455.3
2018-01-29T09:18:25.825Z,22840.0
2018-01-29T09:19:26.030Z,22994.9
2018-01-29T09:20:25.816Z,23149.1
2018-01-29T09:21:25.818Z,23159.3
2018-01-29T09:22:25.849Z,23191.9
2018-01-29T09:23:25.856Z,23114.1
2018-01-29T09:24:26.032Z,23226.5
2018-01-29T09:25:25.820Z,22865.1
2018-01-29T09:26:25.817Z,23269.3
2018-01-29T09:27:25.856Z,23744.5
2018-01-29T09:28:25.829Z,23487.1
2018-01-29T09:29:26.039Z,23618.1
2018-01-29T09:30:25.820Z,23435.2
2018-01-29T09:31:25.835Z,23502.3
2018-01-29T09:32:25.857Z,23325.5
2018-01-29T09:33:25.821Z,23190.7
2018-01-29T09:34:26.093Z,23141.5
2018-01-29T09:35:25.847Z,22935.4
2018-01-29T09:36:25.823Z,22802.9
2018-01-29T09:37:25.822Z,22692.8
2018-01-29T09:38:25.826Z,22588.9
2018-01-29T09:39:26.031Z,22064.6
2018-01-29T09:40:25.859Z,22158.5
2018-01-29T09:41:25.828Z,21701.7
2018-01-29T09:42:25.831Z,21491.3
2018-01-29T09:43:25.828Z,21802.7
2018-01-29T09:44:26.040Z,22064.9
2018-01-29T09:45:25.863Z,21960.5
2018-01-29T09:46:25.830Z,21739.6
2018-01-29T09:47:25.828Z,21788.2
2018-01-29T09:48:25.830Z,21902.9
2018-01-29T09:49:26.037Z,21610.2
2018-01-29T09:50:25.863Z,21518.1
2018-01-29T09:51:25.872Z,21760.7
2018-01-29T09:52:25.834Z,21756.8
2018-01-29T09:53:25.800Z,21885.5
2018-01-29T09:54:26.150Z,21670.9
2018-01-29T09:55:25.862Z,21553.1
2018-01-29T09:56:26.068Z,21482.9
2018-01-29T09:58:25.822Z,21037.7
2018-01-29T09:59:26.064Z,20365.9
2018-01-29T10:00:25.904Z,19223.0
2018-01-29T10:01:25.816Z,18766.1
2018-01-29T10:02:25.821Z,18462.8
2018-01-29T10:03:25.820Z,17990.1
2018-01-29T10:04:26.080Z,17530.5
2018-01-29T10:05:25.821Z,17783.8
2018-01-29T10:06:30.821Z,17781.2
2018-01-29T10:07:25.823Z,17315.6
2018-01-29T10:08:25.821Z,16956.7
2018-01-29T10:09:26.037Z,16941.2
2018-01-29T10:10:25.825Z,17005.0
2018-01-29T10:11:25.852Z,16993.7
2018-01-29T10:12:25.821Z,17086.9
2018-01-29T10:13:25.825Z,17453.1
2018-01-29T10:14:26.026Z,17828.1
2018-01-29T10:15:25.821Z,18430.7
2018-01-29T10:16:25.846Z,18935.1
2018-01-29T10:17:25.823Z,19450.3
2018-01-29T10:18:25.822Z,19696.8
2018-01-29T10:19:26.028Z,19925.5
2018-01-29T10:20:25.821Z,19739.2
2018-01-29T10:21:25.850Z,19521.2
2018-01-29T10:22:25.820Z,19448.6
2018-01-29T10:23:25.820Z,19318.6
2018-01-29T10:24:26.119Z,18764.6
2018-01-29T10:25:30.821Z,18586.9
2018-01-29T10:26:30.831Z,18180.0
2018-01-29T10:27:26.057Z,18009.7
2018-01-29T10:28:30.826Z,17752.6
2018-01-29T10:29:26.032Z,17783.5
2018-01-29T10:30:25.820Z,17821.7
2018-01-29T10:31:25.852Z,17764.3
2018-01-29T10:32:25.821Z,17850.9
2018-01-29T10:33:25.829Z,18258.5
2018-01-29T10:34:26.050Z,18717.8
2018-01-29T10:35:25.821Z,19301.6
2018-01-29T10:36:25.853Z,20079.8
2018-01-29T10:37:25.821Z,20567.1
2018-01-29T10:38:25.825Z,21166.8
2018-01-29T10:39:26.300Z,21897.7
2018-01-29T10:40:25.825Z,22555.6
2018-01-29T10:41:25.854Z,23174.6
2018-01-29T10:42:25.851Z,23702.2
2018-01-29T10:43:25.824Z,24374.5
2018-01-29T10:44:26.092Z,25051.3
2018-01-29T10:45:25.855Z,25514.5
2018-01-29T10:46:25.863Z,25880.3
2018-01-29T10:47:25.827Z,26123.3
2018-01-29T10:48:25.830Z,26204.7
2018-01-29T10:49:31.069Z,26087.9
2018-01-29T10:50:25.834Z,25799.3
2018-01-29T10:51:25.860Z,25430.2
2018-01-29T10:52:30.842Z,25153.7
2018-01-29T10:53:25.834Z,24856.7
2018-01-29T10:54:31.061Z,24686.5
2018-01-29T10:55:25.859Z,24253.9
2018-01-29T10:56:25.834Z,24135.3
2018-01-29T10:57:25.836Z,23828.1
2018-01-29T10:58:25.834Z,23435.0
2018-01-29T10:59:26.113Z,22531.7
2018-01-29T11:00:25.871Z,21914.9
2018-01-29T11:01:25.850Z,21386.9
2018-01-29T11:02:25.840Z,20694.2
2018-01-29T11:03:25.839Z,20078.4
2018-01-29T11:04:26.045Z,19526.5
2018-01-29T11:05:25.870Z,19145.7
2018-01-29T11:06:25.848Z,18616.3
2018-01-29T11:07:25.839Z,18582.9
2018-01-29T11:08:25.839Z,18545.1
2018-01-29T11:09:26.048Z,18232.3
2018-01-29T11:10:30.844Z,18140.9
2018-01-29T11:11:25.844Z,17980.5
2018-01-29T11:13:25.827Z,17800.7
2018-01-29T11:14:26.040Z,17754.7
2018-01-29T11:15:25.867Z,17985.4
2018-01-29T11:16:26.860Z,18312.4
2018-01-29T11:17:25.830Z,18846.0
2018-01-29T11:18:25.831Z,19300.1
2018-01-29T11:19:27.069Z,19790.9
2018-01-29T11:20:25.859Z,20349.9
2018-01-29T11:21:25.829Z,20720.9
2018-01-29T11:22:25.827Z,21190.5
2018-01-29T11:23:25.837Z,21219.3
2018-01-29T11:24:26.032Z,21087.5
2018-01-29T11:25:25.865Z,21364.7
2018-01-29T11:26:25.832Z,21848.8
2018-01-29T11:27:25.830Z,22410.8
2018-01-29T11:28:25.833Z,23070.7
2018-01-29T11:29:26.057Z,23268.1
2018-01-29T11:30:25.862Z,23464.6
2018-01-29T11:31:30.832Z,23384.3
2018-01-29T11:32:25.830Z,23222.1
2018-01-29T11:33:25.836Z,23005.6
2018-01-29T11:34:26.038Z,22690.6
2018-01-29T11:35:25.868Z,22249.0
2018-01-29T11:36:25.835Z,22108.0
2018-01-29T11:37:25.839Z,22064.5
2018-01-29T11:38:25.836Z,21969.7
2018-01-29T11:39:26.042Z,22088.2
2018-01-29T11:40:25.864Z,21999.3
2018-01-29T11:41:25.833Z,21527.1
2018-01-29T11:42:25.906Z,20877.5
2018-01-29T11:43:25.835Z,20063.9
2018-01-29T11:44:26.044Z,19477.5
2018-01-29T11:45:25.869Z,18982.3
2018-01-29T11:46:26.866Z,18574.7
2018-01-29T11:47:25.839Z,18458.9
2018-01-29T11:48:25.844Z,18789.4
2018-01-29T11:49:27.066Z,19136.7
2018-01-29T11:50:25.869Z,19289.8
2018-01-29T11:51:25.839Z,19358.3
2018-01-29T11:52:25.842Z,19557.7
2018-01-29T11:53:25.848Z,20225.3
2018-01-29T11:54:26.051Z,20395.9
2018-01-29T11:55:25.875Z,20322.5
2018-01-29T11:56:25.840Z,20344.3
2018-01-29T11:57:25.840Z,20637.3
2018-01-29T11:58:25.838Z,20913.3
2018-01-29T11:59:26.046Z,21161.2
2018-01-29T12:00:25.879Z,21575.8
2018-01-29T12:01:25.845Z,21931.3
2018-01-29T12:02:25.845Z,22071.5
2018-01-29T12:03:25.851Z,22227.4
2018-01-29T12:04:26.047Z,22103.7
2018-01-29T12:05:25.878Z,21955.6
2018-01-29T12:06:25.854Z,21984.8
2018-01-29T12:07:25.890Z,21704.9
2018-01-29T12:08:25.841Z,21175.4
2018-01-29T12:09:26.120Z,21003.6
2018-01-29T12:10:25.883Z,20887.1
2018-01-29T12:11:25.849Z,20903.6
2018-01-29T12:12:25.848Z,20722.9
2018-01-29T12:13:25.845Z,20509.5
2018-01-29T12:14:26.064Z,20528.9
2018-01-29T12:16:25.918Z,20564.4
2018-01-29T12:17:25.830Z,20611.0
2018-01-29T12:18:25.830Z,20634.5
2018-01-29T12:19:25.832Z,20715.0
2018-01-29T12:20:26.046Z,21445.1
2018-01-29T12:21:25.866Z,22391.1
2018-01-29T12:22:25.830Z,22845.4
2018-01-29T12:23:25.832Z,23078.2
2018-01-29T12:24:25.833Z,23268.0
2018-01-29T12:25:26.098Z,23432.7
2018-01-29T12:26:25.864Z,23803.0
2018-01-29T12:27:25.891Z,24206.1
2018-01-29T12:28:25.830Z,24528.1
2018-01-29T12:29:25.824Z,24802.0
2018-01-29T12:30:26.074Z,24967.7
2018-01-29T12:31:25.863Z,25107.8
2018-01-29T12:32:25.827Z,25343.4
2018-01-29T12:33:30.833Z,25472.3
2018-01-29T12:34:25.826Z,25182.3
2018-01-29T12:35:26.048Z,24358.3
2018-01-29T12:36:25.856Z,23897.1
2018-01-29T12:37:25.825Z,23944.9
2018-01-29T12:38:25.825Z,24299.1
2018-01-29T12:39:25.827Z,24464.3
2018-01-29T12:40:26.044Z,24715.3
2018-01-29T12:41:25.859Z,24699.2
2018-01-29T12:42:25.827Z,24508.1
2018-01-29T12:43:25.824Z,24506.7
2018-01-29T12:44:25.826Z,24454.8
2018-01-29T12:45:26.031Z,24626.0
2018-01-29T12:46:25.860Z,24862.7
2018-01-29T12:47:25.826Z,25038.5
2018-01-29T12:48:25.829Z,25058.0
2018-01-29T12:49:30.832Z,25137.1
2018-01-29T12:50:26.035Z,25512.5
2018-01-29T12:51:25.862Z,25363.6
2018-01-29T12:52:25.827Z,25003.9
2018-01-29T12:53:25.826Z,24520.7
2018-01-29T12:54:25.828Z,24350.6
2018-01-29T12:55:26.033Z,24306.3
2018-01-29T12:56:25.851Z,24374.5
2018-01-29T12:57:25.823Z,24405.0
2018-01-29T12:58:25.826Z,24303.1
2018-01-29T12:59:25.827Z,24405.9
2018-01-29T13:00:28.430Z,24585.7
2018-01-29T13:01:26.886Z,24520.5
2018-01-29T13:02:25.822Z,24248.8
2018-01-29T13:03:25.821Z,23839.3
2018-01-29T13:04:25.794Z,23197.1
2018-01-29T13:05:26.113Z,22429.3
2018-01-29T13:06:25.855Z,22030.9
2018-01-29T13:07:25.826Z,21539.9
2018-01-29T13:08:25.824Z,21248.7
2018-01-29T13:09:25.823Z,20677.1
2018-01-29T13:10:26.057Z,19924.7
2018-01-29T13:11:25.861Z,19282.6
2018-01-29T13:12:25.828Z,18985.3
2018-01-29T13:13:25.832Z,18945.7
2018-01-29T13:14:25.831Z,19068.1
2018-01-29T13:15:26.065Z,18859.7
2018-01-29T13:16:25.900Z,18556.5
2018-01-29T13:17:25.832Z,18379.2
2018-01-29T13:18:25.836Z,18380.8
2018-01-29T13:19:25.833Z,18528.6
2018-01-29T13:20:26.042Z,18512.3
2018-01-29T13:21:25.868Z,18211.7
2018-01-29T13:22:25.832Z,18053.1
2018-01-29T13:23:25.832Z,17863.2
2018-01-29T13:24:25.833Z,17649.9
2018-01-29T13:25:26.040Z,17577.7
2018-01-29T13:26:25.865Z,17557.5
2018-01-29T13:27:26.857Z,17252.6
2018-01-29T13:28:25.834Z,16773.3
2018-01-29T13:29:25.830Z,16339.1
2018-01-29T13:30:26.045Z,15859.6
2018-01-29T13:31:25.853Z,15594.9
2018-01-29T13:32:25.830Z,15342.0
2018-01-29T13:33:25.832Z,15149.3
2018-01-29T13:34:25.865Z,15340.2
2018-01-29T13:35:26.037Z,15617.1
2018-01-29T13:36:25.828Z,15965.2
2018-01-29T13:37:25.831Z,16027.9
2018-01-29T13:38:25.843Z,16283.9
2018-01-29T13:39:25.863Z,16291.8
2018-01-29T13:40:31.040Z,16010.7
2018-01-29T13:41:25.836Z,15666.4
2018-01-29T13:42:25.832Z,15802.1
2018-01-29T13:43:25.833Z,16024.6
2018-01-29T13:44:25.870Z,16076.8
2018-01-29T13:45:26.043Z,16106.7
2018-01-29T13:46:25.838Z,15925.1
2018-01-29T13:47:25.833Z,15703.8
2018-01-29T13:48:25.833Z,15544.6
2018-01-29T13:49:25.868Z,15111.5
2018-01-29T13:50:26.039Z,14891.9
2018-01-29T13:51:25.835Z,14719.6
2018-01-29T13:52:25.831Z,14686.1
2018-01-29T13:53:25.830Z,14429.1
2018-01-29T13:54:25.868Z,14511.0
2018-01-29T13:55:31.042Z,14783.3
2018-01-29T13:56:25.831Z,14964.1
2018-01-29T13:57:25.833Z,14721.1
2018-01-29T13:58:25.840Z,14233.6
2018-01-29T13:59:25.864Z,13759.7
2018-01-29T14:00:28.610Z,13357.1
2018-01-29T14:01:25.833Z,13034.5
2018-01-29T14:02:25.836Z,12800.8
2018-01-29T14:03:25.841Z,12568.7
2018-01-29T14:04:25.865Z,12379.5
2018-01-29T14:05:31.043Z,12137.5
2018-01-29T14:06:25.833Z,11900.3
2018-01-29T14:07:25.833Z,11701.1
2018-01-29T14:08:25.836Z,11544.9
2018-01-29T14:09:25.866Z,11454.7
2018-01-29T14:10:26.062Z,11432.0
2018-01-29T14:11:25.836Z,11434.1
2018-01-29T14:12:26.862Z,11469.8
2018-01-29T14:13:25.834Z,11531.3
2018-01-29T14:14:25.865Z,11628.7
2018-01-29T14:15:26.101Z,11699.9
2018-01-29T14:16:25.836Z,11703.3
2018-01-29T14:17:25.835Z,11673.2
2018-01-29T14:19:25.852Z,11648.0
2018-01-29T14:20:27.080Z,11618.1
2018-01-29T14:21:25.824Z,11547.3
2018-01-29T14:22:25.856Z,11331.1
2018-01-29T14:23:25.850Z,11149.1
2018-01-29T14:24:25.862Z,11074.9
2018-01-29T14:25:26.083Z,10935.5
2018-01-29T14:26:25.827Z,10682.2
2018-01-29T14:27:25.823Z,10297.2
2018-01-29T14:28:25.828Z,9956.1
2018-01-29T14:29:25.852Z,9584.7
2018-01-29T14:30:26.033Z,9343.1
2018-01-29T14:31:25.824Z,9149.6
2018-01-29T14:32:25.855Z,8892.7
2018-01-29T14:33:25.828Z,8657.3
2018-01-29T14:34:25.826Z,8521.0
2018-01-29T14:35:31.066Z,8425.4
2018-01-29T14:36:25.826Z,8403.6
2018-01-29T14:37:25.865Z,8529.7
2018-01-29T14:38:25.826Z,8615.2
2018-01-29T14:39:25.832Z,8571.2
2018-01-29T14:40:26.057Z,8537.5
2018-01-29T14:41:25.851Z,8557.5
2018-01-29T14:42:25.860Z,8602.7
2018-01-29T14:43:25.830Z,8541.7
2018-01-29T14:44:25.830Z,8519.5
2018-01-29T14:45:26.056Z,8370.1
2018-01-29T14:46:25.834Z,8181.3
2018-01-29T14:47:25.863Z,8116.9
2018-01-29T14:48:25.833Z,8078.9
2018-01-29T14:49:25.834Z,7886.7
2018-01-29T14:50:26.038Z,7599.9
2018-01-29T14:51:25.839Z,7288.8
2018-01-29T14:52:25.872Z,6903.6
2018-01-29T14:53:25.878Z,6541.3
2018-01-29T14:54:25.837Z,6231.3
2018-01-29T14:55:26.047Z,5896.1
2018-01-29T14:56:25.843Z,5620.7
2018-01-29T14:57:25.870Z,5385.5
2018-01-29T14:58:25.837Z,5239.5
2018-01-29T14:59:25.904Z,5059.7
2018-01-29T15:00:28.800Z,4817.9
2018-01-29T15:01:25.840Z,4588.3
2018-01-29T15:02:25.869Z,4389.4
2018-01-29T15:03:25.908Z,4167.3
2018-01-29T15:04:25.837Z,4077.0
2018-01-29T15:05:26.045Z,4043.5
2018-01-29T15:06:25.843Z,3922.7
2018-01-29T15:07:25.870Z,3898.9
2018-01-29T15:08:25.845Z,3875.6
2018-01-29T15:09:25.847Z,3781.1
2018-01-29T15:10:26.047Z,3683.2
2018-01-29T15:11:25.839Z,3604.1
2018-01-29T15:12:25.879Z,3600.3
2018-01-29T15:13:25.883Z,3581.5
2018-01-29T15:14:25.840Z,3568.5
2018-01-29T15:15:26.118Z,3567.3
2018-01-29T15:16:25.818Z,3579.2
2018-01-29T15:17:25.986Z,3554.1
2018-01-29T15:18:25.843Z,3499.2
2018-01-29T15:19:25.844Z,3406.5
2018-01-29T15:20:26.075Z,3292.8
2018-01-29T15:21:25.839Z,3219.0
2018-01-29T15:22:25.881Z,3095.9
2018-01-29T15:23:25.909Z,2989.6
2018-01-29T15:24:25.844Z,2951.2
2018-01-29T15:25:26.053Z,2966.5
2018-01-29T15:26:25.851Z,2902.1
2018-01-29T15:27:25.870Z,2804.4
2018-01-29T15:28:25.873Z,2682.7
2018-01-29T15:29:25.844Z,2577.3
2018-01-29T15:30:26.053Z,2495.9
2018-01-29T15:31:25.843Z,2403.0
2018-01-29T15:32:25.847Z,2295.3
2018-01-29T15:34:25.865Z,2203.5
2018-01-29T15:35:26.040Z,2067.1
2018-01-29T15:36:25.835Z,1965.1
2018-01-29T15:37:25.839Z,1900.5
2018-01-29T15:38:25.838Z,1850.7
2018-01-29T15:39:25.884Z,1774.9
2018-01-29T15:40:26.370Z,1673.2
2018-01-29T15:41:25.839Z,1562.7
2018-01-29T15:42:25.839Z,1469.3
2018-01-29T15:43:25.837Z,1374.5
2018-01-29T15:44:25.870Z,1288.3
2018-01-29T15:45:26.043Z,1203.5
2018-01-29T15:46:25.881Z,1125.2
2018-01-29T15:47:25.838Z,1051.3
2018-01-29T15:48:25.842Z,991.7
2018-01-29T15:49:25.866Z,957.6
2018-01-29T15:50:26.052Z,938.6
2018-01-29T15:51:25.838Z,921.9
2018-01-29T15:52:25.846Z,912.9
2018-01-29T15:53:25.846Z,905.6
2018-01-29T15:54:25.872Z,898.1
2018-01-29T15:55:26.048Z,895.9
2018-01-29T15:56:25.838Z,905.1
2018-01-29T15:57:25.877Z,914.9
2018-01-29T15:58:25.836Z,925.9
2018-01-29T15:59:25.865Z,929.3
2018-01-29T16:00:28.551Z,927.9
2018-01-29T16:01:25.863Z,918.1
2018-01-29T16:02:25.841Z,897.6
2018-01-29T16:03:25.847Z,868.7
2018-01-29T16:04:25.838Z,828.3
2018-01-29T16:05:26.044Z,777.1
2018-01-29T16:06:25.873Z,719.7
2018-01-29T16:07:25.844Z,660.4
2018-01-29T16:08:25.841Z,600.6
2018-01-29T16:09:25.857Z,543.5
2018-01-29T16:10:26.236Z,490.8
2018-01-29T16:11:25.863Z,437.3
2018-01-29T16:12:25.838Z,384.0
2018-01-29T16:13:25.841Z,331.0
2018-01-29T16:14:25.904Z,282.6
2018-01-29T16:15:26.190Z,239.5
2018-01-29T16:16:25.808Z,202.9
2018-01-29T16:17:25.863Z,173.3
2018-01-29T16:19:25.835Z,149.5
2018-01-29T16:20:26.084Z,129.9
2018-01-29T16:21:25.823Z,113.9
2018-01-29T16:22:25.860Z,100.3
2018-01-29T16:23:25.828Z,87.6
2018-01-29T16:24:25.821Z,76.9
2018-01-29T16:25:26.154Z,68.1
2018-01-29T16:26:25.826Z,60.0
2018-01-29T16:27:25.854Z,52.5
2018-01-29T16:28:25.852Z,45.8
2018-01-29T16:29:30.829Z,40.0
2018-01-29T16:30:26.146Z,34.7
2018-01-29T16:31:25.825Z,29.5
2018-01-29T16:32:25.826Z,24.7
2018-01-29T16:33:25.861Z,20.7
2018-01-29T16:34:25.827Z,17.3
2018-01-29T16:35:26.028Z,14.6
2018-01-29T16:36:25.828Z,12.6
2018-01-29T16:37:25.866Z,11.1
2018-01-29T16:38:25.851Z,9.8
2018-01-29T16:39:25.875Z,8.6
2018-01-29T16:40:26.056Z,7.5
2018-01-29T16:41:25.825Z,6.5
2018-01-29T16:42:25.795Z,5.5
2018-01-29T16:43:25.829Z,4.7
2018-01-29T16:44:25.864Z,3.9
2018-01-29T16:45:26.291Z,3.3
2018-01-29T16:46:25.831Z,2.9
2018-01-29T16:47:25.832Z,2.5
2018-01-29T16:48:25.830Z,2.3
2018-01-29T16:49:25.888Z,2.0
2018-01-29T16:50:26.105Z,1.7
2018-01-29T16:51:25.854Z,1.5
2018-01-29T16:52:25.797Z,1.3
2018-01-29T16:53:25.835Z,1.1
2018-01-29T16:54:25.829Z,0.9
2018-01-29T16:55:26.052Z,0.8
2018-01-29T16:56:25.864Z,0.7
2018-01-29T16:57:25.800Z,0.5
2018-01-29T16:59:25.833Z,0.4
2018-01-29T17:00:28.539Z,0.3
2018-01-29T17:02:25.870Z,0.2
2018-01-29T17:03:25.832Z,0.1
2018-01-29T17:32:25.836Z,0.1
2018-01-29T17:45:26.176Z,0.1
2018-01-29T17:49:25.855Z,0.2
2018-01-29T17:50:26.038Z,0.3
2018-01-29T18:00:28.553Z,0.4
2018-01-29T18:03:25.854Z,0.3
2018-01-29T18:14:25.832Z,0.2
2018-01-29T18:15:25.830Z,0.2
2018-01-29T18:16:25.831Z,0.3
2018-01-29T18:19:26.087Z,0.2
2018-01-29T18:22:25.831Z,0.3
2018-01-29T18:25:26.157Z,0.4
2018-01-29T18:29:25.832Z,0.5
2018-01-29T18:30:26.065Z,0.5
2018-01-29T18:31:25.837Z,0.4
2018-01-29T18:32:25.834Z,0.5
2018-01-29T18:43:25.867Z,0.6
2018-01-29T18:45:26.213Z,0.6
2018-01-29T18:46:25.844Z,0.7
2018-01-29T18:52:26.151Z,0.8
2018-01-29T18:53:25.853Z,0.7
2018-01-29T18:58:25.835Z,0.8
2018-01-29T18:59:25.834Z,0.7
2018-01-29T19:00:25.834Z,0.7
2018-01-29T19:01:25.836Z,0.6
2018-01-29T19:02:26.076Z,0.5
2018-01-29T19:09:26.173Z,0.6
2018-01-29T19:10:25.839Z,0.7
2018-01-29T19:13:25.858Z,0.6
2018-01-29T19:14:26.158Z,0.7
2018-01-29T19:15:25.838Z,0.7
2018-01-29T19:16:25.837Z,0.8
2018-01-29T19:17:25.838Z,0.9
2018-01-29T19:30:25.841Z,0.9
2018-01-29T19:35:26.121Z,1.0
2018-01-29T19:38:25.872Z,0.9
2018-01-29T19:45:29.637Z,0.9
2018-01-29T19:54:26.189Z,1.0
2018-01-29T20:00:28.914Z,1.0
2018-01-29T20:15:26.230Z,1.0
2018-01-29T20:30:25.853Z,1.0
2018-01-29T20:45:26.142Z,1.0
2018-01-29T20:56:26.221Z,0.9
2018-01-29T20:59:25.856Z,0.8
2018-01-29T21:00:25.874Z,0.8
2018-01-29T21:01:26.118Z,0.7
2018-01-29T21:03:25.851Z,0.6
2018-01-29T21:04:25.852Z,0.5
2018-01-29T21:06:26.199Z,0.4
2018-01-29T21:07:25.849Z,0.3
2018-01-29T21:11:26.123Z,0.4
2018-01-29T21:14:25.880Z,0.5
2018-01-29T21:15:25.856Z,0.5
2018-01-29T21:17:26.107Z,0.6
2018-01-29T21:18:25.851Z,0.7
2018-01-29T21:20:25.876Z,0.8
2018-01-29T21:23:26.049Z,0.9
2018-01-29T21:30:26.072Z,0.9
2018-01-29T21:37:26.117Z,1.0
2018-01-29T21:39:25.841Z,0.9
2018-01-29T21:41:25.843Z,0.8
2018-01-29T21:45:25.938Z,0.7
2018-01-29T21:55:25.955Z,0.8
2018-01-29T21:56:25.878Z,0.9
2018-01-29T22:00:28.686Z,0.9
2018-01-29T22:01:25.884Z,1.0
2018-01-29T22:11:26.151Z,0.9
2018-01-29T22:15:25.954Z,0.9
2018-01-29T22:26:26.163Z,1.0
2018-01-29T22:30:26.914Z,1.0
2018-01-29T22:37:26.142Z,0.9
2018-01-29T22:45:26.198Z,0.9
2018-01-29T22:53:26.255Z,1.0
2018-01-29T23:00:28.697Z,1.0
2018-01-29T23:05:26.131Z,1.1
2018-01-29T23:10:26.079Z,1.0
2018-01-29T23:15:26.216Z,1.0
2018-01-29T23:17:25.849Z,0.9
2018-01-29T23:30:26.208Z,0.9
2018-01-29T23:32:25.858Z,1.0
2018-01-29T23:45:26.111Z,1.0
2018-01-29T23:46:25.858Z,0.9
